Time;durP1;ratioP1;P1;durP2;ratioP2;P2;SDS_P1;SDS_P2;PMS_P1;PMS_P2;Temp;Humidity;BMP_temperature;BMP_pressure;BME280_temperature;BME280_humidity;BME280_pressure;Samples;Min_cycle;Max_cycle;Signal;HPM_P1;HPM_P2
2024/01/10 00:00:14;;;;;;;14.70;5.43;;;-2.30;97.60;;;;;;5097392;28;20020;-74
2024/01/10 00:02:39;;;;;;;12.67;5.03;;;-2.20;97.60;;;;;;5097780;28;20107;-74
2024/01/10 00:05:06;;;;;;;13.10;5.37;;;-2.20;97.80;;;;;;5097854;28;20047;-74
2024/01/10 00:07:31;;;;;;;11.20;4.83;;;-2.20;97.30;;;;;;5115122;28;20054;-74
2024/01/10 00:09:59;;;;;;;14.70;5.37;;;-2.20;97.40;;;;;;5097693;28;20482;-74
2024/01/10 00:12:25;;;;;;;13.60;4.40;;;-2.20;97.40;;;;;;5115563;28;20049;-74
2024/01/10 00:14:51;;;;;;;12.43;4.67;;;-2.20;97.10;;;;;;5115576;28;20052;-74
2024/01/10 00:17:16;;;;;;;13.07;5.50;;;-2.20;97.30;;;;;;5097149;28;20034;-74
2024/01/10 00:19:42;;;;;;;13.30;5.30;;;-2.10;97.40;;;;;;5097677;28;20520;-74
2024/01/10 00:22:07;;;;;;;13.37;4.97;;;-2.10;97.10;;;;;;5097242;28;20034;-74
2024/01/10 00:24:33;;;;;;;12.27;5.30;;;-2.10;97.50;;;;;;5114985;28;20027;-74
2024/01/10 00:26:58;;;;;;;12.60;4.70;;;-2.10;97.70;;;;;;5097767;28;20020;-74
2024/01/10 00:29:24;;;;;;;10.03;4.47;;;-2.10;97.50;;;;;;5115027;28;20095;-74
2024/01/10 00:31:52;;;;;;;13.30;5.50;;;-2.00;97.80;;;;;;5096765;28;20027;-74
2024/01/10 00:34:17;;;;;;;21.90;4.97;;;-2.10;97.90;;;;;;5096808;28;20448;-74
2024/01/10 00:36:43;;;;;;;11.87;4.93;;;-2.10;97.70;;;;;;5097604;28;20072;-74
2024/01/10 00:39:09;;;;;;;12.73;5.47;;;-2.00;97.60;;;;;;5097283;28;20020;-74
2024/01/10 00:41:34;;;;;;;11.73;5.00;;;-2.00;97.60;;;;;;5096346;28;20064;-74
2024/01/10 00:44:00;;;;;;;16.13;5.97;;;-2.00;97.70;;;;;;5097152;28;20027;-74
2024/01/10 00:46:25;;;;;;;12.43;4.40;;;-2.00;97.90;;;;;;5096663;28;20015;-74
2024/01/10 00:48:51;;;;;;;15.00;4.97;;;-2.00;97.90;;;;;;5097140;28;20020;-74
2024/01/10 00:51:16;;;;;;;13.27;5.47;;;-1.90;97.70;;;;;;5096688;28;20433;-74
2024/01/10 00:53:42;;;;;;;15.80;5.27;;;-2.00;98.10;;;;;;5115532;28;20028;-74
2024/01/10 00:56:08;;;;;;;13.00;5.50;;;-2.00;98.10;;;;;;5097015;28;20023;-74
2024/01/10 00:58:33;;;;;;;11.50;5.00;;;-2.10;98.40;;;;;;5114803;28;20590;-74
2024/01/10 01:00:59;;;;;;;11.87;4.80;;;-2.00;98.20;;;;;;5115120;28;20092;-74
2024/01/10 01:03:25;;;;;;;11.83;5.40;;;-2.00;97.90;;;;;;5096261;28;20032;-74
2024/01/10 01:05:50;;;;;;;14.53;5.60;;;-2.00;97.40;;;;;;5096486;28;20047;-74
2024/01/10 01:08:16;;;;;;;16.43;5.47;;;-2.00;97.60;;;;;;5096327;28;20020;-75
2024/01/10 01:10:41;;;;;;;13.33;4.77;;;-2.00;97.60;;;;;;5114699;28;20452;-74
2024/01/10 01:13:07;;;;;;;13.43;5.60;;;-2.00;97.90;;;;;;5115183;28;20394;-74
2024/01/10 01:15:33;;;;;;;14.00;5.00;;;-2.00;97.60;;;;;;5096103;28;20106;-74
2024/01/10 01:17:58;;;;;;;15.40;5.20;;;-2.00;97.90;;;;;;5096646;28;20019;-74
2024/01/10 01:20:24;;;;;;;12.57;4.83;;;-2.00;98.00;;;;;;5096017;28;20024;-74
2024/01/10 01:22:49;;;;;;;10.13;5.17;;;-2.00;97.70;;;;;;5096328;28;20031;-74
2024/01/10 01:25:15;;;;;;;11.20;4.60;;;-1.90;97.70;;;;;;5096323;28;20020;-83
2024/01/10 01:27:41;;;;;;;14.00;4.60;;;-1.90;97.60;;;;;;5095944;28;20031;-75
2024/01/10 01:30:07;;;;;;;10.93;5.10;;;-2.00;97.50;;;;;;5096184;28;20023;-74
2024/01/10 01:32:32;;;;;;;13.13;5.20;;;-1.90;97.50;;;;;;5114277;28;20046;-74
2024/01/10 01:34:58;;;;;;;12.57;4.63;;;-2.00;97.50;;;;;;5113864;28;20459;-74
2024/01/10 01:37:24;;;;;;;12.53;5.53;;;-1.90;97.40;;;;;;5095640;28;20038;-74
2024/01/10 01:39:49;;;;;;;14.20;6.00;;;-1.90;97.60;;;;;;5096114;28;20463;-74
2024/01/10 01:42:15;;;;;;;15.33;5.30;;;-1.90;97.40;;;;;;5091345;28;20080;-75
2024/01/10 01:44:41;;;;;;;14.77;5.63;;;-1.90;97.50;;;;;;5092237;28;20408;-74
2024/01/10 01:47:07;;;;;;;12.53;5.17;;;-1.90;97.70;;;;;;5092539;28;20096;-74
2024/01/10 01:49:33;;;;;;;13.63;4.90;;;-1.90;97.50;;;;;;5092105;28;20023;-74
2024/01/10 01:52:00;;;;;;;12.60;5.53;;;-1.90;97.90;;;;;;5092460;28;20115;-74
2024/01/10 01:54:26;;;;;;;14.03;5.40;;;-1.90;97.60;;;;;;5092015;28;20024;-74
2024/01/10 01:56:52;;;;;;;13.20;5.70;;;-2.00;97.70;;;;;;5092450;28;20027;-74
2024/01/10 01:59:19;;;;;;;16.53;5.93;;;-2.00;98.10;;;;;;5091926;28;20479;-77
2024/01/10 02:01:45;;;;;;;16.37;5.77;;;-2.00;98.00;;;;;;5092270;28;20032;-74
2024/01/10 02:04:11;;;;;;;15.33;5.83;;;-2.00;98.00;;;;;;5092508;28;20058;-74
2024/01/10 02:06:37;;;;;;;16.13;6.00;;;-2.10;98.00;;;;;;5091831;28;20082;-74
2024/01/10 02:09:03;;;;;;;13.60;5.27;;;-2.20;98.10;;;;;;5093275;28;20469;-74
2024/01/10 02:11:29;;;;;;;15.70;6.60;;;-2.20;98.30;;;;;;5093285;28;20066;-74
2024/01/10 02:13:55;;;;;;;14.00;5.70;;;-2.20;98.20;;;;;;5092184;28;20028;-73
2024/01/10 02:16:24;;;;;;;15.70;6.63;;;-2.20;98.20;;;;;;5093003;28;20117;-74
2024/01/10 02:18:50;;;;;;;14.37;5.73;;;-2.20;98.40;;;;;;5092107;28;20024;-74
2024/01/10 02:21:20;;;;;;;14.73;5.87;;;-2.20;98.30;;;;;;5093268;28;20166;-74
2024/01/10 02:23:45;;;;;;;12.47;5.47;;;-2.20;98.40;;;;;;5091973;28;20043;-74
2024/01/10 02:26:11;;;;;;;13.17;4.90;;;-2.10;98.40;;;;;;5092027;28;20059;-76
2024/01/10 02:28:36;;;;;;;12.53;5.37;;;-2.10;98.10;;;;;;5091393;28;20024;-74
2024/01/10 02:31:02;;;;;;;17.67;6.00;;;-2.10;98.20;;;;;;5091917;28;20107;-74
2024/01/10 02:33:28;;;;;;;16.50;6.07;;;-2.10;98.10;;;;;;5092711;28;20020;-74
2024/01/10 02:35:54;;;;;;;13.53;6.07;;;-2.20;98.30;;;;;;5091794;28;20110;-74
2024/01/10 02:38:23;;;;;;;14.33;6.17;;;-2.20;98.30;;;;;;5093063;28;20051;-81
2024/01/10 02:40:48;;;;;;;16.77;5.10;;;-2.10;98.30;;;;;;5099947;28;20042;-74
2024/01/10 02:43:14;;;;;;;13.93;5.43;;;-2.20;98.40;;;;;;5094939;28;20036;-74
2024/01/10 02:45:39;;;;;;;16.63;6.47;;;-2.20;98.20;;;;;;5112852;28;20204;-74
2024/01/10 02:48:05;;;;;;;13.57;6.27;;;-2.20;98.10;;;;;;5095068;28;20023;-73
2024/01/10 02:50:31;;;;;;;17.73;5.63;;;-2.20;98.10;;;;;;5112484;28;20024;-74
2024/01/10 02:52:56;;;;;;;16.13;6.03;;;-2.10;98.00;;;;;;5094752;28;20487;-74
2024/01/10 02:55:22;;;;;;;19.37;6.87;;;-2.10;98.30;;;;;;5094653;28;20062;-75
2024/01/10 02:57:47;;;;;;;12.13;5.40;;;-2.10;98.20;;;;;;5094972;28;20453;-74
2024/01/10 03:00:13;;;;;;;12.37;5.40;;;-2.10;98.20;;;;;;5094887;28;20106;-73
2024/01/10 03:02:39;;;;;;;15.10;5.80;;;-2.10;98.20;;;;;;5112479;28;20034;-73
2024/01/10 03:05:05;;;;;;;14.53;5.17;;;-2.10;98.40;;;;;;5113186;28;20406;-74
2024/01/10 03:07:30;;;;;;;16.60;6.03;;;-2.10;98.30;;;;;;5112559;28;20016;-74
2024/01/10 03:09:56;;;;;;;18.77;6.63;;;-2.00;98.20;;;;;;5094687;28;20024;-74
2024/01/10 03:12:21;;;;;;;16.80;6.60;;;-2.10;97.90;;;;;;5112927;28;20371;-83
2024/01/10 03:14:47;;;;;;;15.43;6.20;;;-2.10;98.10;;;;;;5113051;28;20024;-73
2024/01/10 03:17:13;;;;;;;12.00;5.30;;;-2.10;98.50;;;;;;5094730;28;20015;-74
2024/01/10 03:19:42;;;;;;;13.00;5.57;;;-2.10;98.70;;;;;;5094329;28;20436;-74
2024/01/10 03:22:08;;;;;;;14.23;5.93;;;-2.00;98.40;;;;;;5094459;28;20031;-74
2024/01/10 03:24:34;;;;;;;14.50;5.80;;;-2.10;98.30;;;;;;5094269;28;20107;-74
2024/01/10 03:26:59;;;;;;;14.30;6.20;;;-2.20;98.40;;;;;;5094617;28;20020;-74
2024/01/10 03:29:25;;;;;;;18.27;7.07;;;-2.10;98.50;;;;;;5112568;28;20026;-74
2024/01/10 03:31:50;;;;;;;12.97;5.57;;;-2.20;98.30;;;;;;5112917;28;20027;-74
2024/01/10 03:34:17;;;;;;;16.87;5.97;;;-2.20;98.30;;;;;;5094652;28;20080;-74
2024/01/10 03:36:43;;;;;;;14.27;5.70;;;-2.20;98.30;;;;;;5094280;28;20213;-74
2024/01/10 03:39:10;;;;;;;14.93;6.00;;;-2.30;98.40;;;;;;5094692;28;20511;-74
2024/01/10 03:41:35;;;;;;;13.80;5.87;;;-2.20;98.60;;;;;;5093599;28;20070;-74
2024/01/10 03:44:01;;;;;;;14.93;6.70;;;-2.20;98.30;;;;;;5094602;28;20364;-74
2024/01/10 03:46:27;;;;;;;14.40;6.20;;;-2.30;98.30;;;;;;5093990;28;20464;-74
2024/01/10 03:48:52;;;;;;;15.70;6.00;;;-2.30;98.50;;;;;;5094335;28;20020;-74
2024/01/10 03:51:19;;;;;;;14.57;6.50;;;-2.30;98.50;;;;;;5094644;28;20027;-74
2024/01/10 03:53:49;;;;;;;17.13;7.23;;;-2.40;98.40;;;;;;5093963;28;20042;-74
2024/01/10 03:56:14;;;;;;;17.43;7.03;;;-2.40;98.40;;;;;;5112669;28;20089;-74
2024/01/10 03:58:40;;;;;;;15.23;6.07;;;-2.40;98.40;;;;;;5112166;28;20050;-74
2024/01/10 04:01:07;;;;;;;17.33;6.03;;;-2.40;98.50;;;;;;5112630;28;20050;-74
2024/01/10 04:03:33;;;;;;;15.67;5.97;;;-2.40;98.60;;;;;;5112195;28;20114;-74
2024/01/10 04:05:59;;;;;;;15.37;6.67;;;-2.40;98.70;;;;;;5096088;28;20115;-74
2024/01/10 04:08:24;;;;;;;18.87;6.80;;;-2.40;98.80;;;;;;5097957;28;20114;-74
2024/01/10 04:10:50;;;;;;;19.43;7.10;;;-2.30;98.80;;;;;;5115735;28;20020;-74
2024/01/10 04:13:16;;;;;;;15.50;6.63;;;-2.20;98.70;;;;;;5098055;28;20027;-74
2024/01/10 04:15:42;;;;;;;16.27;7.03;;;-2.10;98.80;;;;;;5115742;28;20022;-74
2024/01/10 04:18:08;;;;;;;15.13;6.23;;;-2.10;98.70;;;;;;5097797;28;20089;-74
2024/01/10 04:20:34;;;;;;;20.40;6.93;;;-2.10;98.80;;;;;;5115288;28;20019;-74
2024/01/10 04:22:59;;;;;;;17.13;6.17;;;-2.10;98.60;;;;;;5115834;28;20066;-74
2024/01/10 04:25:25;;;;;;;14.27;5.87;;;-2.10;98.50;;;;;;5097642;28;20028;-74
2024/01/10 04:27:50;;;;;;;16.47;6.80;;;-2.10;98.50;;;;;;5097050;28;20043;-74
2024/01/10 04:30:16;;;;;;;14.37;6.03;;;-2.10;98.30;;;;;;5097638;28;20026;-74
2024/01/10 04:32:42;;;;;;;16.87;6.23;;;-2.10;98.20;;;;;;5096957;28;20413;-74
2024/01/10 04:35:07;;;;;;;17.60;6.93;;;-2.20;98.40;;;;;;5097442;28;20042;-74
2024/01/10 04:37:33;;;;;;;17.10;6.40;;;-2.30;98.70;;;;;;5115260;28;20102;-75
2024/01/10 04:39:58;;;;;;;19.43;7.40;;;-2.30;98.40;;;;;;5115150;28;20077;-73
2024/01/10 04:42:24;;;;;;;16.60;6.83;;;-2.20;98.40;;;;;;5097236;28;20468;-74
2024/01/10 04:44:50;;;;;;;18.93;6.50;;;-2.20;98.70;;;;;;5115112;28;20073;-74
2024/01/10 04:47:16;;;;;;;17.30;6.03;;;-2.20;98.70;;;;;;5097221;28;20027;-74
2024/01/10 04:49:42;;;;;;;18.23;6.67;;;-2.20;98.40;;;;;;5114942;28;20023;-74
2024/01/10 04:52:07;;;;;;;16.30;5.93;;;-2.20;98.50;;;;;;5115699;28;20035;-74
2024/01/10 04:54:34;;;;;;;19.63;6.70;;;-2.30;98.50;;;;;;5096660;28;20023;-74
2024/01/10 04:56:59;;;;;;;14.57;6.47;;;-2.20;98.60;;;;;;5097179;28;20022;-74
2024/01/10 04:59:25;;;;;;;19.40;7.20;;;-2.30;99.00;;;;;;5097135;28;20364;-74
2024/01/10 05:01:50;;;;;;;14.03;6.47;;;-2.20;98.70;;;;;;5114436;28;20034;-74
2024/01/10 05:04:16;;;;;;;16.53;6.83;;;-2.20;98.50;;;;;;5096918;28;20019;-73
2024/01/10 05:06:42;;;;;;;17.83;6.50;;;-2.20;98.30;;;;;;5096310;28;20030;-74
2024/01/10 05:09:07;;;;;;;15.33;6.40;;;-2.30;98.70;;;;;;5115005;28;20027;-74
2024/01/10 05:11:35;;;;;;;17.00;6.77;;;-2.20;98.60;;;;;;5095830;28;20023;-74
2024/01/10 05:14:01;;;;;;;17.50;6.67;;;-2.20;98.70;;;;;;5114957;28;20031;-74
2024/01/10 05:16:27;;;;;;;18.93;7.77;;;-2.20;98.80;;;;;;5114840;28;20027;-74
2024/01/10 05:18:52;;;;;;;15.80;6.73;;;-2.20;98.70;;;;;;5095982;28;20456;-74
2024/01/10 05:21:18;;;;;;;17.60;6.97;;;-2.20;98.60;;;;;;5096418;28;20022;-73
2024/01/10 05:23:43;;;;;;;17.93;6.43;;;-2.20;98.60;;;;;;5096057;28;20055;-74
2024/01/10 05:26:09;;;;;;;20.07;6.80;;;-2.10;98.40;;;;;;5114669;28;20023;-74
2024/01/10 05:28:35;;;;;;;16.70;7.00;;;-2.20;98.30;;;;;;5095954;28;20519;-74
2024/01/10 05:31:01;;;;;;;17.33;6.73;;;-2.20;98.20;;;;;;5096344;28;20028;-74
2024/01/10 05:33:26;;;;;;;16.00;6.57;;;-2.20;98.30;;;;;;5096286;28;20111;-74
2024/01/10 05:35:52;;;;;;;17.77;6.67;;;-2.20;98.40;;;;;;5113969;28;20399;-74
2024/01/10 05:38:17;;;;;;;20.07;7.03;;;-2.20;98.40;;;;;;5114182;28;20095;-74
2024/01/10 05:40:43;;;;;;;16.93;7.17;;;-2.20;98.30;;;;;;5091894;28;20055;-74
2024/01/10 05:43:12;;;;;;;19.47;7.13;;;-2.20;98.40;;;;;;5092850;28;20035;-74
2024/01/10 05:45:38;;;;;;;20.73;7.47;;;-2.20;98.50;;;;;;5092158;28;20012;-74
2024/01/10 05:48:04;;;;;;;17.23;6.20;;;-2.20;98.40;;;;;;5093862;28;20045;-74
2024/01/10 05:50:30;;;;;;;18.30;7.67;;;-2.30;98.50;;;;;;5093922;28;20077;-74
2024/01/10 05:52:55;;;;;;;16.67;6.90;;;-2.30;98.50;;;;;;5091923;28;20024;-74
2024/01/10 05:55:21;;;;;;;16.70;6.47;;;-2.30;98.70;;;;;;5093912;28;20057;-74
2024/01/10 05:57:46;;;;;;;21.00;7.77;;;-2.30;98.80;;;;;;5093289;28;20078;-73
2024/01/10 06:00:13;;;;;;;16.07;6.20;;;-2.30;98.80;;;;;;5093453;28;20054;-73
2024/01/10 06:02:39;;;;;;;17.60;6.70;;;-2.30;98.80;;;;;;5091772;28;20115;-74
2024/01/10 06:05:09;;;;;;;17.03;6.40;;;-2.40;98.80;;;;;;5092323;28;20059;-74
2024/01/10 06:07:35;;;;;;;17.63;6.90;;;-2.40;98.80;;;;;;5092865;28;20020;-73
2024/01/10 06:10:01;;;;;;;20.27;6.67;;;-2.40;99.00;;;;;;5091555;28;20016;-74
2024/01/10 06:12:27;;;;;;;17.97;6.80;;;-2.40;98.80;;;;;;5092331;28;20046;-74
2024/01/10 06:14:53;;;;;;;20.67;7.23;;;-2.40;98.90;;;;;;5091793;28;20024;-74
2024/01/10 06:17:19;;;;;;;21.63;6.70;;;-2.40;99.00;;;;;;5092000;28;20077;-74
2024/01/10 06:19:45;;;;;;;21.10;8.23;;;-2.40;99.30;;;;;;5091764;28;20180;-74
2024/01/10 06:22:11;;;;;;;18.87;7.20;;;-2.40;99.20;;;;;;5093048;28;20036;-74
2024/01/10 06:24:37;;;;;;;16.67;6.90;;;-2.50;99.40;;;;;;5092001;28;20062;-74
2024/01/10 06:27:04;;;;;;;15.23;6.23;;;-2.50;99.30;;;;;;5091888;28;20047;-74
2024/01/10 06:29:30;;;;;;;19.23;6.40;;;-2.50;99.30;;;;;;5091408;28;20027;-73
2024/01/10 06:31:57;;;;;;;19.97;7.37;;;-2.50;99.50;;;;;;5092629;28;20028;-73
2024/01/10 06:34:22;;;;;;;19.33;6.70;;;-2.60;99.30;;;;;;5093174;28;20412;-74
2024/01/10 06:36:48;;;;;;;21.53;8.23;;;-2.60;99.40;;;;;;5091361;28;20066;-73
2024/01/10 06:39:14;;;;;;;17.27;6.87;;;-2.60;99.40;;;;;;5091899;28;20016;-73
2024/01/10 06:41:40;;;;;;;17.90;6.13;;;-2.70;99.50;;;;;;5090862;28;20546;-73
2024/01/10 06:44:06;;;;;;;17.17;6.97;;;-2.60;99.70;;;;;;5092069;28;20020;-73
2024/01/10 06:46:33;;;;;;;19.33;6.67;;;-2.60;99.60;;;;;;5093025;28;20460;-73
2024/01/10 06:48:59;;;;;;;20.10;7.30;;;-2.60;99.60;;;;;;5092350;28;20016;-73
2024/01/10 06:51:25;;;;;;;22.57;7.37;;;-2.60;99.70;;;;;;5091136;28;20401;-73
2024/01/10 06:53:50;;;;;;;22.33;7.53;;;-2.60;99.80;;;;;;5091007;28;20020;-73
2024/01/10 06:56:16;;;;;;;24.47;7.20;;;-2.60;99.80;;;;;;5092599;28;20024;-73
2024/01/10 06:58:41;;;;;;;15.97;6.90;;;-2.60;99.60;;;;;;5092742;28;20016;-74
2024/01/10 07:01:14;;;;;;;18.03;7.30;;;-2.50;99.80;;;;;;5092799;28;20055;-73
2024/01/10 07:03:40;;;;;;;19.73;6.73;;;-2.50;99.90;;;;;;5091156;28;20364;-74
2024/01/10 07:06:06;;;;;;;19.87;7.70;;;-2.50;99.70;;;;;;5092841;28;20099;-73
2024/01/10 07:08:31;;;;;;;19.23;7.30;;;-2.60;99.50;;;;;;5091505;28;20105;-73
2024/01/10 07:10:57;;;;;;;18.57;6.80;;;-2.60;99.60;;;;;;5091046;28;20028;-73
2024/01/10 07:13:23;;;;;;;22.23;7.27;;;-2.50;99.90;;;;;;5091540;28;20032;-74
2024/01/10 07:15:51;;;;;;;21.60;7.97;;;-2.50;99.90;;;;;;5091029;28;20047;-73
2024/01/10 07:18:17;;;;;;;17.67;6.83;;;-2.60;99.70;;;;;;5092618;28;20026;-73
2024/01/10 07:20:42;;;;;;;21.17;7.33;;;-2.60;99.90;;;;;;5090850;28;20115;-73
2024/01/10 07:23:08;;;;;;;14.73;6.90;;;-2.60;99.90;;;;;;5090961;28;20032;-73
2024/01/10 07:25:33;;;;;;;21.00;6.93;;;-2.50;99.90;;;;;;5091395;28;20031;-73
2024/01/10 07:27:59;;;;;;;19.07;7.57;;;-2.50;99.70;;;;;;5090715;28;20054;-73
2024/01/10 07:30:25;;;;;;;19.33;8.13;;;-2.60;99.70;;;;;;5091151;28;20016;-73
2024/01/10 07:32:50;;;;;;;17.30;6.53;;;-2.50;99.80;;;;;;5090736;28;20051;-73
2024/01/10 07:35:16;;;;;;;16.43;7.00;;;-2.40;99.70;;;;;;5091156;28;20140;-73
2024/01/10 07:37:42;;;;;;;19.80;7.47;;;-2.40;99.80;;;;;;5090567;28;20110;-73
2024/01/10 07:40:10;;;;;;;16.90;7.23;;;-2.40;99.90;;;;;;5093853;28;20016;-74
2024/01/10 07:42:36;;;;;;;23.20;8.37;;;-2.40;99.90;;;;;;5098491;28;20168;-73
2024/01/10 07:45:04;;;;;;;18.23;7.33;;;-2.40;99.90;;;;;;5116178;28;20106;-73
2024/01/10 07:47:31;;;;;;;19.07;7.80;;;-2.30;99.90;;;;;;5098336;28;20016;-73
2024/01/10 07:49:57;;;;;;;17.67;7.60;;;-2.40;99.80;;;;;;5097723;28;20119;-73
2024/01/10 07:52:23;;;;;;;20.63;7.30;;;-2.40;99.80;;;;;;5116615;28;20023;-73
2024/01/10 07:54:48;;;;;;;19.83;7.70;;;-2.40;99.90;;;;;;5097780;28;20019;-73
2024/01/10 07:57:14;;;;;;;17.00;6.73;;;-2.40;99.90;;;;;;5098133;28;20020;-73
2024/01/10 07:59:40;;;;;;;23.23;7.70;;;-2.40;99.70;;;;;;5116087;28;20495;-74
2024/01/10 08:02:05;;;;;;;20.43;7.57;;;-2.50;99.90;;;;;;5098048;28;20491;-73
2024/01/10 08:04:31;;;;;;;14.70;6.73;;;-2.40;99.90;;;;;;5098021;28;20024;-73
2024/01/10 08:06:57;;;;;;;13.43;6.80;;;-2.40;99.90;;;;;;5097524;28;20027;-74
2024/01/10 08:09:24;;;;;;;22.57;7.93;;;-2.50;99.90;;;;;;5097756;28;20031;-74
2024/01/10 08:11:50;;;;;;;15.37;7.07;;;-2.40;99.90;;;;;;5097462;28;20424;-73
2024/01/10 08:14:16;;;;;;;23.53;7.87;;;-2.40;99.90;;;;;;5116176;28;20448;-73
2024/01/10 08:16:41;;;;;;;18.83;7.53;;;-2.40;99.90;;;;;;5115692;28;20394;-74
2024/01/10 08:19:07;;;;;;;18.57;7.33;;;-2.40;99.90;;;;;;5097721;28;20020;-73
2024/01/10 08:21:33;;;;;;;17.00;6.67;;;-2.40;99.90;;;;;;5097588;28;20024;-73
2024/01/10 08:23:59;;;;;;;13.93;6.77;;;-2.40;99.90;;;;;;5115811;28;20491;-73
2024/01/10 08:26:26;;;;;;;18.37;7.10;;;-2.40;99.90;;;;;;5097454;28;20020;-73
2024/01/10 08:28:52;;;;;;;19.70;6.90;;;-2.40;99.90;;;;;;5097175;28;20019;-73
2024/01/10 08:31:18;;;;;;;15.27;6.40;;;-2.40;99.90;;;;;;5115471;28;20103;-73
2024/01/10 08:33:43;;;;;;;20.67;8.23;;;-2.40;99.90;;;;;;5097040;28;20016;-73
2024/01/10 08:36:12;;;;;;;21.03;7.60;;;-2.30;99.90;;;;;;5097177;28;20051;-73
2024/01/10 08:38:38;;;;;;;21.03;6.97;;;-2.40;99.90;;;;;;5097434;28;20029;-73
2024/01/10 08:41:04;;;;;;;22.13;7.90;;;-2.30;99.90;;;;;;5096429;28;20044;-73
2024/01/10 08:43:30;;;;;;;20.93;7.10;;;-2.20;99.90;;;;;;5097441;28;20035;-73
2024/01/10 08:45:57;;;;;;;20.17;7.60;;;-2.20;99.90;;;;;;5096828;28;20023;-73
2024/01/10 08:48:23;;;;;;;22.83;7.57;;;-2.20;99.90;;;;;;5115641;28;20016;-74
2024/01/10 08:50:50;;;;;;;19.70;7.33;;;-2.20;99.90;;;;;;5114186;28;20478;-74
2024/01/10 08:53:16;;;;;;;18.23;6.90;;;-2.10;99.90;;;;;;5097065;28;20452;-74
2024/01/10 08:55:42;;;;;;;19.00;7.07;;;-2.10;99.90;;;;;;5096983;28;20075;-74
2024/01/10 08:58:08;;;;;;;17.23;7.23;;;-2.00;99.90;;;;;;5097046;28;20051;-74
2024/01/10 09:00:34;;;;;;;17.63;6.63;;;-2.00;99.90;;;;;;5096922;28;20054;-74
2024/01/10 09:03:00;;;;;;;17.90;6.77;;;-2.00;99.90;;;;;;5114746;28;20027;-74
2024/01/10 09:05:26;;;;;;;17.70;6.80;;;-2.00;99.90;;;;;;5096854;28;20404;-74
2024/01/10 09:07:53;;;;;;;14.90;6.70;;;-1.90;99.90;;;;;;5096388;28;20059;-74
2024/01/10 09:10:21;;;;;;;20.63;8.20;;;-1.90;99.90;;;;;;5096763;28;20024;-74
2024/01/10 09:12:47;;;;;;;20.10;8.03;;;-1.90;99.90;;;;;;5095992;28;20057;-74
2024/01/10 09:15:14;;;;;;;18.87;6.77;;;-1.80;99.90;;;;;;5096314;28;20023;-74
2024/01/10 09:17:43;;;;;;;20.83;7.80;;;-1.80;99.90;;;;;;5096477;28;20110;-74
2024/01/10 09:20:10;;;;;;;15.87;6.80;;;-1.80;99.90;;;;;;5114628;28;20394;-74
2024/01/10 09:22:37;;;;;;;21.03;7.50;;;-1.80;99.90;;;;;;5096524;28;20031;-74
2024/01/10 09:25:05;;;;;;;14.47;6.57;;;-1.80;99.90;;;;;;5096012;28;20024;-74
2024/01/10 09:27:34;;;;;;;20.27;7.47;;;-1.70;99.90;;;;;;5096448;28;20026;-74
2024/01/10 09:30:08;;;;;;;21.60;7.50;;;-1.60;99.90;;;;;;5095991;28;20054;-74
2024/01/10 09:32:34;;;;;;;18.63;7.70;;;-1.60;99.90;;;;;;5096446;28;20055;-74
2024/01/10 09:35:00;;;;;;;15.97;6.33;;;-1.60;99.90;;;;;;5114045;28;20020;-74
2024/01/10 09:37:25;;;;;;;20.87;7.90;;;-1.50;99.90;;;;;;5096347;28;20020;-73
2024/01/10 09:39:52;;;;;;;18.43;7.67;;;-1.50;99.90;;;;;;5095877;28;20456;-74
2024/01/10 09:42:18;;;;;;;16.03;6.67;;;-1.40;99.90;;;;;;5096201;28;20463;-73
2024/01/10 09:44:45;;;;;;;20.90;7.53;;;-1.40;99.90;;;;;;5096158;28;20027;-74
2024/01/10 09:47:13;;;;;;;19.03;7.20;;;-1.40;99.90;;;;;;5096089;28;20041;-74
2024/01/10 09:49:39;;;;;;;18.73;6.83;;;-1.40;99.90;;;;;;5096019;28;20020;-74
2024/01/10 09:52:10;;;;;;;20.83;7.50;;;-1.30;99.90;;;;;;5113780;28;20027;-74
2024/01/10 09:54:40;;;;;;;16.67;7.43;;;-1.30;99.90;;;;;;5096099;28;20020;-74
2024/01/10 09:57:05;;;;;;;22.90;8.23;;;-1.30;99.90;;;;;;5113755;28;20266;-74
2024/01/10 09:59:31;;;;;;;18.90;7.33;;;-1.20;99.90;;;;;;5096036;28;20051;-74
2024/01/10 10:02:00;;;;;;;17.80;7.67;;;-1.20;99.90;;;;;;5113588;28;20039;-74
2024/01/10 10:04:28;;;;;;;23.40;8.13;;;-1.20;99.90;;;;;;5094907;28;20023;-74
2024/01/10 10:07:03;;;;;;;17.43;7.73;;;-1.20;99.90;;;;;;5095309;28;20508;-74
2024/01/10 10:09:32;;;;;;;20.00;7.90;;;-1.10;99.90;;;;;;5095638;28;20050;-74
2024/01/10 10:11:57;;;;;;;22.63;8.73;;;-1.10;99.90;;;;;;5113705;28;20027;-74
2024/01/10 10:14:26;;;;;;;22.73;8.87;;;-1.00;99.90;;;;;;5113876;28;20360;-74
2024/01/10 10:16:51;;;;;;;17.67;7.00;;;-1.00;99.90;;;;;;5095174;28;20376;-74
2024/01/10 10:19:24;;;;;;;19.43;7.70;;;-1.00;99.90;;;;;;5113963;28;20028;-74
2024/01/10 10:21:50;;;;;;;20.93;7.73;;;-0.90;99.90;;;;;;5113189;28;20464;-74
2024/01/10 10:24:17;;;;;;;20.93;8.50;;;-0.90;99.70;;;;;;5113726;28;20073;-74
2024/01/10 10:26:42;;;;;;;22.83;8.30;;;-0.90;99.40;;;;;;5095433;28;20405;-74
2024/01/10 10:29:09;;;;;;;18.70;8.23;;;-0.90;99.40;;;;;;5113070;28;20089;-74
2024/01/10 10:31:35;;;;;;;20.60;8.37;;;-0.80;99.60;;;;;;5095323;28;20475;-74
2024/01/10 10:34:02;;;;;;;22.43;8.07;;;-0.80;99.70;;;;;;5094867;28;20452;-74
2024/01/10 10:36:30;;;;;;;21.23;8.53;;;-0.80;99.70;;;;;;5113485;28;20084;-73
2024/01/10 10:38:55;;;;;;;24.73;9.07;;;-0.70;99.70;;;;;;5094840;28;20019;-74
2024/01/10 10:41:21;;;;;;;19.23;8.30;;;-0.80;99.40;;;;;;5095049;28;20054;-74
2024/01/10 10:43:50;;;;;;;18.87;8.77;;;-0.70;99.60;;;;;;5113375;28;20499;-74
2024/01/10 10:46:16;;;;;;;19.03;8.33;;;-0.80;99.70;;;;;;5095130;28;20024;-74
2024/01/10 10:48:42;;;;;;;23.03;8.10;;;-0.70;99.50;;;;;;5113458;28;20050;-74
2024/01/10 10:51:24;;;;;;;20.37;8.17;;;-0.60;99.70;;;;;;5094779;28;20024;-74
2024/01/10 10:53:50;;;;;;;20.80;8.38;;;-0.50;99.50;;;;;;5112983;28;20051;-81
2024/01/10 10:56:16;;;;;;;19.53;8.03;;;-0.50;99.40;;;;;;5113243;28;20020;-74
2024/01/10 10:58:44;;;;;;;22.90;8.67;;;-0.50;99.50;;;;;;5113291;28;20090;-74
2024/01/10 11:01:11;;;;;;;22.33;8.60;;;-0.50;99.10;;;;;;5094551;28;20203;-74
2024/01/10 11:03:47;;;;;;;19.93;8.83;;;-0.50;99.20;;;;;;5094950;28;20458;-74
2024/01/10 11:06:13;;;;;;;22.83;8.40;;;-0.40;99.10;;;;;;5112508;28;20032;-74
2024/01/10 11:08:44;;;;;;;18.67;8.17;;;-0.30;99.50;;;;;;5094892;28;20047;-74
2024/01/10 11:12:02;;;;;;;19.88;7.68;;;-0.20;99.20;;;;;;5094600;28;20222;-74
2024/01/10 11:14:58;;;;;;;19.20;8.17;;;-0.10;99.40;;;;;;5071672;28;20051;-74
2024/01/10 11:17:34;;;;;;;21.87;8.60;;;0.00;99.60;;;;;;5099205;28;20023;-74
2024/01/10 11:20:22;;;;;;;20.87;7.97;;;0.00;98.90;;;;;;5098514;28;20027;-74
2024/01/10 11:22:56;;;;;;;19.67;8.27;;;0.00;98.80;;;;;;5116965;28;20073;-74
2024/01/10 11:25:22;;;;;;;19.70;8.03;;;0.00;98.60;;;;;;5099082;28;20024;-74
2024/01/10 11:27:52;;;;;;;17.03;7.97;;;0.10;99.10;;;;;;5098747;28;20028;-74
2024/01/10 11:30:51;;;;;;;21.27;8.77;;;0.10;98.70;;;;;;5098844;28;20494;-74
2024/01/10 11:33:25;;;;;;;21.97;8.23;;;0.10;98.40;;;;;;5061474;28;20067;-74
2024/01/10 11:36:27;;;;;;;19.67;8.00;;;0.00;98.40;;;;;;5098867;28;20030;-74
2024/01/10 11:38:56;;;;;;;15.02;6.40;;;0.10;98.70;;;;;;4997306;28;20168;-78
2024/01/10 11:41:29;;;;;;;23.67;8.63;;;0.10;98.90;;;;;;5080517;28;20039;-74
2024/01/10 11:44:10;;;;;;;22.97;8.30;;;0.20;98.50;;;;;;5116441;28;20031;-74
2024/01/10 11:46:43;;;;;;;21.53;8.40;;;0.20;98.30;;;;;;5116761;28;20024;-74
2024/01/10 11:49:11;;;;;;;22.13;8.60;;;0.20;98.60;;;;;;5115973;28;20024;-74
2024/01/10 11:51:37;;;;;;;19.30;8.90;;;0.30;98.90;;;;;;5098267;28;20038;-74
2024/01/10 11:54:03;;;;;;;17.10;8.27;;;0.30;98.40;;;;;;5097659;28;20310;-74
2024/01/10 11:56:42;;;;;;;23.57;8.67;;;0.40;98.40;;;;;;5098303;28;20020;-74
2024/01/10 11:59:13;;;;;;;24.57;8.53;;;0.40;98.30;;;;;;5097698;28;20046;-75
2024/01/10 12:01:40;;;;;;;22.00;9.30;;;0.40;98.50;;;;;;5097998;28;20024;-75
2024/01/10 12:04:06;;;;;;;23.43;8.53;;;0.50;98.90;;;;;;5116035;28;20463;-74
2024/01/10 12:06:34;;;;;;;22.10;8.93;;;0.50;98.90;;;;;;5097326;28;20532;-74
2024/01/10 12:08:59;;;;;;;18.43;7.93;;;0.60;98.40;;;;;;5097535;28;20106;-74
2024/01/10 12:11:26;;;;;;;21.73;9.50;;;0.70;98.00;;;;;;5115808;28;20553;-74
2024/01/10 12:13:52;;;;;;;19.50;8.67;;;0.80;97.80;;;;;;5097801;28;20027;-74
2024/01/10 12:16:18;;;;;;;21.50;8.57;;;0.90;97.70;;;;;;5097394;28;20031;-74
2024/01/10 12:18:43;;;;;;;20.73;8.63;;;1.10;97.70;;;;;;5116165;28;20020;-74
2024/01/10 12:21:10;;;;;;;23.27;8.87;;;1.20;97.30;;;;;;5115834;28;20024;-74
2024/01/10 12:23:39;;;;;;;22.47;9.30;;;1.30;97.00;;;;;;5115997;28;20110;-74
2024/01/10 12:26:09;;;;;;;20.97;8.47;;;1.50;96.70;;;;;;5096316;28;20091;-74
2024/01/10 12:28:35;;;;;;;19.90;9.13;;;1.60;96.70;;;;;;5097551;28;20102;-74
2024/01/10 12:31:03;;;;;;;21.57;8.50;;;1.80;97.00;;;;;;5097187;28;20019;-74
2024/01/10 12:33:28;;;;;;;19.47;8.83;;;2.00;97.00;;;;;;5115483;28;20031;-74
2024/01/10 12:36:11;;;;;;;25.33;9.67;;;2.00;96.50;;;;;;5116068;28;20028;-74